sensor_id;sensor_type;location;lat;lon;timestamp;pressure;altitude;pressure_sealevel;temperature;humidity
72570;BME280;60594;50.204;8.844;2023-04-02T00:01:23;99108.00;;;8.32;100.00
72570;BME280;60594;50.204;8.844;2023-04-02T00:08:56;99112.09;;;8.55;100.00
72570;BME280;60594;50.204;8.844;2023-04-02T00:11:33;99116.59;;;8.64;100.00
72570;BME280;60594;50.204;8.844;2023-04-02T00:14:02;99123.16;;;8.51;100.00
72570;BME280;60594;50.204;8.844;2023-04-02T00:16:29;99118.50;;;8.43;100.00
72570;BME280;60594;50.204;8.844;2023-04-02T00:18:59;99123.03;;;8.52;100.00
72570;BME280;60594;50.204;8.844;2023-04-02T00:21:29;99125.38;;;8.55;100.00
72570;BME280;60594;50.204;8.844;2023-04-02T00:24:01;99132.91;;;8.41;100.00
72570;BME280;60594;50.204;8.844;2023-04-02T00:26:36;99135.44;;;8.52;100.00
72570;BME280;60594;50.204;8.844;2023-04-02T00:29:05;99144.41;;;8.60;100.00
72570;BME280;60594;50.204;8.844;2023-04-02T00:31:33;99142.59;;;8.70;100.00
72570;BME280;60594;50.204;8.844;2023-04-02T00:34:02;99146.53;;;8.76;100.00
72570;BME280;60594;50.204;8.844;2023-04-02T00:36:32;99145.97;;;8.72;100.00
72570;BME280;60594;50.204;8.844;2023-04-02T00:39:08;99145.56;;;8.77;100.00
72570;BME280;60594;50.204;8.844;2023-04-02T00:41:36;99158.13;;;8.65;100.00
72570;BME280;60594;50.204;8.844;2023-04-02T00:44:04;99155.72;;;8.53;100.00
72570;BME280;60594;50.204;8.844;2023-04-02T00:46:41;99160.09;;;8.63;100.00
72570;BME280;60594;50.204;8.844;2023-04-02T00:49:31;99155.47;;;8.75;100.00
72570;BME280;60594;50.204;8.844;2023-04-02T00:52:09;99155.06;;;8.79;100.00
72570;BME280;60594;50.204;8.844;2023-04-02T00:54:55;99157.47;;;8.92;100.00
72570;BME280;60594;50.204;8.844;2023-04-02T00:57:24;99167.50;;;8.69;100.00
72570;BME280;60594;50.204;8.844;2023-04-02T01:00:19;99165.97;;;8.76;100.00
72570;BME280;60594;50.204;8.844;2023-04-02T01:05:46;99165.22;;;8.65;100.00
72570;BME280;60594;50.204;8.844;2023-04-02T01:11:24;99177.50;;;8.47;100.00
72570;BME280;60594;50.204;8.844;2023-04-02T01:13:59;99172.00;;;8.39;100.00
72570;BME280;60594;50.204;8.844;2023-04-02T01:21:56;99176.66;;;8.46;100.00
72570;BME280;60594;50.204;8.844;2023-04-02T01:24:30;99175.50;;;8.39;100.00
72570;BME280;60594;50.204;8.844;2023-04-02T01:27:00;99189.19;;;8.35;100.00
72570;BME280;60594;50.204;8.844;2023-04-02T01:29:30;99189.59;;;8.30;100.00
72570;BME280;60594;50.204;8.844;2023-04-02T01:32:19;99185.50;;;8.26;100.00
72570;BME280;60594;50.204;8.844;2023-04-02T01:34:48;99192.78;;;8.24;100.00
72570;BME280;60594;50.204;8.844;2023-04-02T01:37:19;99196.75;;;8.19;100.00
72570;BME280;60594;50.204;8.844;2023-04-02T01:42:59;99189.41;;;8.22;100.00
72570;BME280;60594;50.204;8.844;2023-04-02T01:45:27;99198.94;;;8.25;100.00
72570;BME280;60594;50.204;8.844;2023-04-02T01:47:54;99196.84;;;8.28;100.00
72570;BME280;60594;50.204;8.844;2023-04-02T01:50:26;99198.25;;;8.32;100.00
72570;BME280;60594;50.204;8.844;2023-04-02T01:53:00;99205.53;;;8.30;100.00
72570;BME280;60594;50.204;8.844;2023-04-02T01:57:58;99210.59;;;8.43;100.00
72570;BME280;60594;50.204;8.844;2023-04-02T02:00:26;99210.53;;;8.33;100.00
72570;BME280;60594;50.204;8.844;2023-04-02T02:02:56;99215.00;;;8.23;100.00
72570;BME280;60594;50.204;8.844;2023-04-02T02:05:25;99214.38;;;8.20;100.00
72570;BME280;60594;50.204;8.844;2023-04-02T02:07:55;99222.81;;;8.25;100.00
72570;BME280;60594;50.204;8.844;2023-04-02T02:10:26;99224.28;;;8.38;100.00
72570;BME280;60594;50.204;8.844;2023-04-02T02:12:53;99224.28;;;8.38;100.00
72570;BME280;60594;50.204;8.844;2023-04-02T02:15:22;99228.31;;;8.33;100.00
72570;BME280;60594;50.204;8.844;2023-04-02T02:17:48;99229.97;;;8.34;100.00
72570;BME280;60594;50.204;8.844;2023-04-02T02:20:16;99231.78;;;8.33;100.00
72570;BME280;60594;50.204;8.844;2023-04-02T02:22:46;99243.75;;;8.28;100.00
72570;BME280;60594;50.204;8.844;2023-04-02T02:25:16;99236.13;;;8.34;100.00
72570;BME280;60594;50.204;8.844;2023-04-02T02:27:57;99243.50;;;8.31;100.00
72570;BME280;60594;50.204;8.844;2023-04-02T02:30:48;99246.59;;;8.56;100.00
72570;BME280;60594;50.204;8.844;2023-04-02T02:33:28;99246.88;;;8.63;100.00
72570;BME280;60594;50.204;8.844;2023-04-02T02:36:33;99259.16;;;8.64;100.00
72570;BME280;60594;50.204;8.844;2023-04-02T02:39:09;99253.91;;;8.73;100.00
72570;BME280;60594;50.204;8.844;2023-04-02T02:41:47;99253.75;;;8.75;100.00
72570;BME280;60594;50.204;8.844;2023-04-02T02:44:19;99264.81;;;8.80;100.00
72570;BME280;60594;50.204;8.844;2023-04-02T02:46:53;99268.75;;;8.85;100.00
72570;BME280;60594;50.204;8.844;2023-04-02T02:49:29;99275.31;;;8.81;100.00
72570;BME280;60594;50.204;8.844;2023-04-02T02:55:02;99278.31;;;8.58;100.00
72570;BME280;60594;50.204;8.844;2023-04-02T02:57:47;99281.50;;;8.52;100.00
72570;BME280;60594;50.204;8.844;2023-04-02T03:00:15;99279.44;;;8.65;100.00
72570;BME280;60594;50.204;8.844;2023-04-02T03:02:45;99282.81;;;8.67;100.00
72570;BME280;60594;50.204;8.844;2023-04-02T03:05:21;99283.25;;;8.72;100.00
72570;BME280;60594;50.204;8.844;2023-04-02T03:07:52;99289.72;;;8.79;100.00
72570;BME280;60594;50.204;8.844;2023-04-02T03:10:22;99293.13;;;8.60;100.00
72570;BME280;60594;50.204;8.844;2023-04-02T03:13:01;99289.53;;;8.41;100.00
72570;BME280;60594;50.204;8.844;2023-04-02T03:15:39;99297.63;;;8.39;100.00
72570;BME280;60594;50.204;8.844;2023-04-02T03:18:13;99307.72;;;8.45;100.00
72570;BME280;60594;50.204;8.844;2023-04-02T03:20:47;99310.69;;;8.52;100.00
72570;BME280;60594;50.204;8.844;2023-04-02T03:23:24;99312.41;;;8.62;100.00
72570;BME280;60594;50.204;8.844;2023-04-02T03:26:14;99319.00;;;8.68;100.00
72570;BME280;60594;50.204;8.844;2023-04-02T03:28:49;99319.75;;;8.70;100.00
72570;BME280;60594;50.204;8.844;2023-04-02T03:31:26;99333.50;;;8.84;100.00
72570;BME280;60594;50.204;8.844;2023-04-02T03:34:00;99335.94;;;8.97;100.00
72570;BME280;60594;50.204;8.844;2023-04-02T03:36:37;99338.22;;;9.11;100.00
72570;BME280;60594;50.204;8.844;2023-04-02T03:39:24;99339.91;;;9.21;100.00
72570;BME280;60594;50.204;8.844;2023-04-02T03:41:57;99339.50;;;9.16;100.00
72570;BME280;60594;50.204;8.844;2023-04-02T03:44:30;99334.47;;;9.23;100.00
72570;BME280;60594;50.204;8.844;2023-04-02T03:47:04;99338.53;;;9.27;100.00
72570;BME280;60594;50.204;8.844;2023-04-02T03:49:41;99350.59;;;9.31;100.00
72570;BME280;60594;50.204;8.844;2023-04-02T03:52:35;99353.69;;;9.36;100.00
72570;BME280;60594;50.204;8.844;2023-04-02T03:55:13;99355.38;;;9.37;100.00
72570;BME280;60594;50.204;8.844;2023-04-02T04:00:34;99364.88;;;9.39;100.00
72570;BME280;60594;50.204;8.844;2023-04-02T04:03:09;99368.41;;;9.40;100.00
72570;BME280;60594;50.204;8.844;2023-04-02T04:05:44;99367.69;;;9.38;100.00
72570;BME280;60594;50.204;8.844;2023-04-02T04:08:17;99374.69;;;9.39;100.00
72570;BME280;60594;50.204;8.844;2023-04-02T04:10:50;99376.50;;;9.38;100.00
72570;BME280;60594;50.204;8.844;2023-04-02T04:13:23;99384.09;;;9.43;100.00
72570;BME280;60594;50.204;8.844;2023-04-02T04:15:59;99385.56;;;9.26;100.00
72570;BME280;60594;50.204;8.844;2023-04-02T04:18:50;99389.56;;;9.11;100.00
72570;BME280;60594;50.204;8.844;2023-04-02T04:21:25;99398.03;;;8.96;100.00
72570;BME280;60594;50.204;8.844;2023-04-02T04:24:17;99398.19;;;9.04;100.00
72570;BME280;60594;50.204;8.844;2023-04-02T04:26:56;99401.06;;;9.21;100.00
72570;BME280;60594;50.204;8.844;2023-04-02T04:29:50;99402.19;;;9.19;100.00
72570;BME280;60594;50.204;8.844;2023-04-02T04:32:31;99404.88;;;8.98;100.00
72570;BME280;60594;50.204;8.844;2023-04-02T04:35:14;99416.06;;;9.02;100.00
72570;BME280;60594;50.204;8.844;2023-04-02T04:37:44;99412.22;;;9.06;100.00
72570;BME280;60594;50.204;8.844;2023-04-02T04:40:45;99420.47;;;8.82;100.00
72570;BME280;60594;50.204;8.844;2023-04-02T04:43:44;99426.94;;;8.89;100.00
72570;BME280;60594;50.204;8.844;2023-04-02T04:46:24;99423.63;;;8.97;100.00
72570;BME280;60594;50.204;8.844;2023-04-02T04:51:26;99433.41;;;8.76;100.00
72570;BME280;60594;50.204;8.844;2023-04-02T04:53:55;99438.16;;;8.72;100.00
72570;BME280;60594;50.204;8.844;2023-04-02T04:56:28;99439.25;;;8.49;100.00
72570;BME280;60594;50.204;8.844;2023-04-02T04:59:13;99452.84;;;8.35;100.00
72570;BME280;60594;50.204;8.844;2023-04-02T05:02:02;99453.81;;;8.34;100.00
72570;BME280;60594;50.204;8.844;2023-04-02T05:04:38;99461.78;;;8.34;100.00
72570;BME280;60594;50.204;8.844;2023-04-02T05:07:15;99458.22;;;8.45;100.00
72570;BME280;60594;50.204;8.844;2023-04-02T05:15:21;99477.06;;;8.62;100.00
72570;BME280;60594;50.204;8.844;2023-04-02T05:18:18;99475.94;;;8.44;100.00
72570;BME280;60594;50.204;8.844;2023-04-02T05:20:50;99472.78;;;8.30;100.00
72570;BME280;60594;50.204;8.844;2023-04-02T05:23:34;99481.22;;;8.24;100.00
72570;BME280;60594;50.204;8.844;2023-04-02T05:26:07;99490.16;;;8.23;100.00
72570;BME280;60594;50.204;8.844;2023-04-02T05:28:55;99495.81;;;8.18;100.00
72570;BME280;60594;50.204;8.844;2023-04-02T05:31:26;99497.75;;;8.16;100.00
72570;BME280;60594;50.204;8.844;2023-04-02T05:33:56;99499.31;;;8.19;100.00
72570;BME280;60594;50.204;8.844;2023-04-02T05:36:25;99504.16;;;8.14;100.00
72570;BME280;60594;50.204;8.844;2023-04-02T05:38:57;99508.25;;;8.29;100.00
72570;BME280;60594;50.204;8.844;2023-04-02T05:41:42;99507.06;;;8.22;100.00
72570;BME280;60594;50.204;8.844;2023-04-02T05:44:24;99508.88;;;8.21;100.00
72570;BME280;60594;50.204;8.844;2023-04-02T05:46:55;99513.00;;;8.46;100.00
72570;BME280;60594;50.204;8.844;2023-04-02T05:49:32;99508.09;;;8.41;100.00
72570;BME280;60594;50.204;8.844;2023-04-02T05:52:02;99524.31;;;8.27;100.00
72570;BME280;60594;50.204;8.844;2023-04-02T05:54:37;99517.69;;;8.22;100.00
72570;BME280;60594;50.204;8.844;2023-04-02T05:57:17;99527.06;;;8.26;100.00
72570;BME280;60594;50.204;8.844;2023-04-02T05:59:51;99529.00;;;8.24;100.00
72570;BME280;60594;50.204;8.844;2023-04-02T06:02:31;99537.16;;;8.21;100.00
72570;BME280;60594;50.204;8.844;2023-04-02T06:05:14;99543.47;;;8.20;100.00
72570;BME280;60594;50.204;8.844;2023-04-02T06:07:46;99551.31;;;8.32;100.00
72570;BME280;60594;50.204;8.844;2023-04-02T06:10:22;99558.97;;;8.57;100.00
72570;BME280;60594;50.204;8.844;2023-04-02T06:12:58;99570.06;;;8.51;100.00
72570;BME280;60594;50.204;8.844;2023-04-02T06:15:31;99575.31;;;8.31;100.00
72570;BME280;60594;50.204;8.844;2023-04-02T06:20:30;99585.47;;;8.15;100.00
72570;BME280;60594;50.204;8.844;2023-04-02T06:23:05;99600.06;;;7.98;100.00
72570;BME280;60594;50.204;8.844;2023-04-02T06:25:40;99606.06;;;7.89;100.00
72570;BME280;60594;50.204;8.844;2023-04-02T06:28:16;99611.66;;;7.86;100.00
72570;BME280;60594;50.204;8.844;2023-04-02T06:30:53;99608.88;;;7.77;100.00
72570;BME280;60594;50.204;8.844;2023-04-02T06:33:24;99618.97;;;7.72;100.00
72570;BME280;60594;50.204;8.844;2023-04-02T06:35:51;99631.41;;;7.60;100.00
72570;BME280;60594;50.204;8.844;2023-04-02T06:38:28;99637.88;;;7.56;100.00
72570;BME280;60594;50.204;8.844;2023-04-02T06:41:03;99633.41;;;7.46;100.00
72570;BME280;60594;50.204;8.844;2023-04-02T06:43:45;99648.69;;;7.31;100.00
72570;BME280;60594;50.204;8.844;2023-04-02T06:46:42;99657.31;;;7.22;100.00
72570;BME280;60594;50.204;8.844;2023-04-02T06:49:22;99668.50;;;7.15;100.00
72570;BME280;60594;50.204;8.844;2023-04-02T06:51:57;99666.25;;;6.97;100.00
72570;BME280;60594;50.204;8.844;2023-04-02T06:54:26;99681.66;;;6.92;100.00
72570;BME280;60594;50.204;8.844;2023-04-02T06:56:57;99685.69;;;6.85;100.00
72570;BME280;60594;50.204;8.844;2023-04-02T06:59:36;99699.38;;;6.79;100.00
72570;BME280;60594;50.204;8.844;2023-04-02T07:04:47;99716.28;;;6.89;100.00
72570;BME280;60594;50.204;8.844;2023-04-02T07:07:15;99711.38;;;6.72;100.00
72570;BME280;60594;50.204;8.844;2023-04-02T07:09:44;99723.69;;;6.61;100.00
72570;BME280;60594;50.204;8.844;2023-04-02T07:12:13;99727.75;;;6.54;100.00
72570;BME280;60594;50.204;8.844;2023-04-02T07:14:41;99739.47;;;6.62;100.00
72570;BME280;60594;50.204;8.844;2023-04-02T07:17:15;99741.56;;;6.70;100.00
72570;BME280;60594;50.204;8.844;2023-04-02T07:19:44;99738.50;;;6.63;100.00
72570;BME280;60594;50.204;8.844;2023-04-02T07:22:16;99753.63;;;6.74;100.00
72570;BME280;60594;50.204;8.844;2023-04-02T07:24:44;99762.22;;;6.77;100.00
72570;BME280;60594;50.204;8.844;2023-04-02T07:27:12;99773.19;;;6.84;100.00
72570;BME280;60594;50.204;8.844;2023-04-02T07:29:39;99773.91;;;6.86;100.00
72570;BME280;60594;50.204;8.844;2023-04-02T07:32:11;99773.88;;;6.98;100.00
72570;BME280;60594;50.204;8.844;2023-04-02T07:34:39;99785.13;;;7.02;100.00
72570;BME280;60594;50.204;8.844;2023-04-02T07:37:06;99791.31;;;7.13;100.00
72570;BME280;60594;50.204;8.844;2023-04-02T07:39:33;99792.47;;;7.22;100.00
72570;BME280;60594;50.204;8.844;2023-04-02T07:42:00;99799.47;;;7.23;100.00
72570;BME280;60594;50.204;8.844;2023-04-02T07:44:27;99797.97;;;7.19;100.00
72570;BME280;60594;50.204;8.844;2023-04-02T07:46:54;99805.56;;;7.00;100.00
72570;BME280;60594;50.204;8.844;2023-04-02T07:49:21;99808.44;;;6.97;100.00
72570;BME280;60594;50.204;8.844;2023-04-02T07:51:48;99824.09;;;7.00;100.00
72570;BME280;60594;50.204;8.844;2023-04-02T07:54:14;99823.72;;;6.93;100.00
72570;BME280;60594;50.204;8.844;2023-04-02T07:56:41;99831.66;;;6.93;100.00
72570;BME280;60594;50.204;8.844;2023-04-02T07:59:08;99831.94;;;7.01;100.00
72570;BME280;60594;50.204;8.844;2023-04-02T08:01:34;99830.59;;;6.96;100.00
72570;BME280;60594;50.204;8.844;2023-04-02T08:04:03;99841.06;;;6.97;100.00
72570;BME280;60594;50.204;8.844;2023-04-02T08:06:30;99844.88;;;7.06;100.00
72570;BME280;60594;50.204;8.844;2023-04-02T08:08:57;99856.19;;;7.08;100.00
72570;BME280;60594;50.204;8.844;2023-04-02T08:11:23;99854.75;;;6.91;100.00
72570;BME280;60594;50.204;8.844;2023-04-02T08:13:50;99864.53;;;6.66;100.00
72570;BME280;60594;50.204;8.844;2023-04-02T08:16:17;99875.22;;;6.64;100.00
72570;BME280;60594;50.204;8.844;2023-04-02T08:18:44;99871.31;;;6.70;100.00
72570;BME280;60594;50.204;8.844;2023-04-02T08:21:12;99881.69;;;6.73;100.00
72570;BME280;60594;50.204;8.844;2023-04-02T08:23:39;99885.59;;;6.80;100.00
72570;BME280;60594;50.204;8.844;2023-04-02T08:26:06;99893.94;;;6.99;100.00
72570;BME280;60594;50.204;8.844;2023-04-02T08:28:33;99894.81;;;6.99;100.00
72570;BME280;60594;50.204;8.844;2023-04-02T08:30:59;99901.59;;;7.03;100.00
72570;BME280;60594;50.204;8.844;2023-04-02T08:33:26;99912.28;;;7.02;100.00
72570;BME280;60594;50.204;8.844;2023-04-02T08:35:53;99909.94;;;6.97;100.00
72570;BME280;60594;50.204;8.844;2023-04-02T08:38:20;99908.69;;;6.78;100.00
72570;BME280;60594;50.204;8.844;2023-04-02T08:40:51;99927.44;;;6.87;100.00
72570;BME280;60594;50.204;8.844;2023-04-02T08:46:29;99942.06;;;6.68;100.00
72570;BME280;60594;50.204;8.844;2023-04-02T08:49:01;99946.72;;;6.77;100.00
72570;BME280;60594;50.204;8.844;2023-04-02T08:51:33;99956.84;;;6.45;100.00
72570;BME280;60594;50.204;8.844;2023-04-02T08:54:16;99956.00;;;6.45;100.00
72570;BME280;60594;50.204;8.844;2023-04-02T08:56:54;99968.56;;;6.29;100.00
72570;BME280;60594;50.204;8.844;2023-04-02T08:59:37;99983.25;;;6.20;100.00
72570;BME280;60594;50.204;8.844;2023-04-02T09:05:05;99987.47;;;6.23;100.00
72570;BME280;60594;50.204;8.844;2023-04-02T09:07:33;99987.94;;;6.29;100.00
72570;BME280;60594;50.204;8.844;2023-04-02T09:10:00;100000.50;;;6.26;100.00
72570;BME280;60594;50.204;8.844;2023-04-02T09:12:29;100004.84;;;6.27;100.00
72570;BME280;60594;50.204;8.844;2023-04-02T09:17:43;100003.13;;;6.13;100.00
72570;BME280;60594;50.204;8.844;2023-04-02T09:20:15;100016.97;;;6.31;100.00
72570;BME280;60594;50.204;8.844;2023-04-02T09:22:44;100015.34;;;6.28;100.00
72570;BME280;60594;50.204;8.844;2023-04-02T09:25:16;100019.69;;;6.29;100.00
72570;BME280;60594;50.204;8.844;2023-04-02T09:27:47;100019.66;;;6.17;100.00
72570;BME280;60594;50.204;8.844;2023-04-02T09:30:39;100032.25;;;6.26;100.00
72570;BME280;60594;50.204;8.844;2023-04-02T09:33:08;100036.00;;;6.36;100.00
72570;BME280;60594;50.204;8.844;2023-04-02T09:35:48;100039.97;;;6.43;100.00
72570;BME280;60594;50.204;8.844;2023-04-02T09:38:22;100045.34;;;6.41;100.00
72570;BME280;60594;50.204;8.844;2023-04-02T09:41:02;100053.09;;;6.44;100.00
72570;BME280;60594;50.204;8.844;2023-04-02T09:43:33;100056.47;;;6.46;100.00
72570;BME280;60594;50.204;8.844;2023-04-02T09:46:02;100063.16;;;6.52;100.00
72570;BME280;60594;50.204;8.844;2023-04-02T09:48:34;100070.38;;;6.50;100.00
72570;BME280;60594;50.204;8.844;2023-04-02T09:51:15;100082.25;;;6.57;100.00
72570;BME280;60594;50.204;8.844;2023-04-02T09:53:46;100080.41;;;6.45;100.00
72570;BME280;60594;50.204;8.844;2023-04-02T09:56:22;100088.44;;;6.43;100.00
72570;BME280;60594;50.204;8.844;2023-04-02T09:59:37;100083.88;;;6.19;100.00
72570;BME280;60594;50.204;8.844;2023-04-02T10:01:58;100092.28;;;6.25;100.00
72570;BME280;60594;50.204;8.844;2023-04-02T10:04:40;100096.34;;;6.31;100.00
72570;BME280;60594;50.204;8.844;2023-04-02T10:09:59;100106.47;;;6.10;100.00
72570;BME280;60594;50.204;8.844;2023-04-02T10:12:29;100116.88;;;5.99;100.00
72570;BME280;60594;50.204;8.844;2023-04-02T10:14:59;100123.91;;;6.00;100.00
72570;BME280;60594;50.204;8.844;2023-04-02T10:17:30;100121.06;;;6.03;100.00
72570;BME280;60594;50.204;8.844;2023-04-02T10:20:00;100134.75;;;5.96;100.00
72570;BME280;60594;50.204;8.844;2023-04-02T10:22:31;100127.38;;;6.01;100.00
72570;BME280;60594;50.204;8.844;2023-04-02T10:24:58;100126.34;;;6.03;100.00
72570;BME280;60594;50.204;8.844;2023-04-02T10:27:36;100135.28;;;6.15;100.00
72570;BME280;60594;50.204;8.844;2023-04-02T10:30:15;100145.75;;;6.30;100.00
72570;BME280;60594;50.204;8.844;2023-04-02T10:33:04;100147.63;;;6.42;100.00
72570;BME280;60594;50.204;8.844;2023-04-02T10:38:28;100158.63;;;6.36;100.00
72570;BME280;60594;50.204;8.844;2023-04-02T10:46:20;100172.81;;;6.62;100.00
72570;BME280;60594;50.204;8.844;2023-04-02T10:49:00;100177.41;;;6.72;100.00
72570;BME280;60594;50.204;8.844;2023-04-02T10:56:35;100182.63;;;6.60;97.19
72570;BME280;60594;50.204;8.844;2023-04-02T10:59:26;100183.44;;;6.48;98.97
72570;BME280;60594;50.204;8.844;2023-04-02T11:01:54;100195.16;;;6.58;98.84
72570;BME280;60594;50.204;8.844;2023-04-02T11:04:26;100199.38;;;6.60;100.00
72570;BME280;60594;50.204;8.844;2023-04-02T11:07:00;100199.69;;;6.56;98.18
72570;BME280;60594;50.204;8.844;2023-04-02T11:09:31;100207.44;;;6.59;98.87
72570;BME280;60594;50.204;8.844;2023-04-02T11:12:00;100215.19;;;6.48;97.99
72570;BME280;60594;50.204;8.844;2023-04-02T11:14:31;100206.03;;;6.39;99.55
72570;BME280;60594;50.204;8.844;2023-04-02T11:16:59;100218.97;;;6.58;100.00
72570;BME280;60594;50.204;8.844;2023-04-02T11:19:30;100217.72;;;6.63;100.00
72570;BME280;60594;50.204;8.844;2023-04-02T11:22:01;100215.56;;;6.56;100.00
72570;BME280;60594;50.204;8.844;2023-04-02T11:30:00;100235.41;;;6.63;98.61
72570;BME280;60594;50.204;8.844;2023-04-02T11:32:34;100247.50;;;6.67;98.23
72570;BME280;60594;50.204;8.844;2023-04-02T11:35:22;100249.34;;;6.52;94.55
72570;BME280;60594;50.204;8.844;2023-04-02T11:37:50;100249.59;;;6.62;94.84
72570;BME280;60594;50.204;8.844;2023-04-02T11:42:49;100253.19;;;6.61;96.15
72570;BME280;60594;50.204;8.844;2023-04-02T11:50:44;100267.50;;;6.44;94.87
72570;BME280;60594;50.204;8.844;2023-04-02T11:55:45;100281.00;;;6.40;93.43
72570;BME280;60594;50.204;8.844;2023-04-02T12:11:47;100327.81;;;6.25;94.07
72570;BME280;60594;50.204;8.844;2023-04-02T12:16:56;100327.88;;;6.24;95.41
72570;BME280;60594;50.204;8.844;2023-04-02T12:19:23;100322.78;;;6.35;94.88
72570;BME280;60594;50.204;8.844;2023-04-02T12:21:51;100329.41;;;6.28;93.52
72570;BME280;60594;50.204;8.844;2023-04-02T12:24:22;100334.81;;;6.40;94.87
72570;BME280;60594;50.204;8.844;2023-04-02T12:27:19;100335.97;;;6.07;93.51
72570;BME280;60594;50.204;8.844;2023-04-02T12:29:50;100338.63;;;6.07;96.47
72570;BME280;60594;50.204;8.844;2023-04-02T12:32:23;100334.09;;;6.09;95.05
72570;BME280;60594;50.204;8.844;2023-04-02T12:34:51;100339.19;;;6.12;94.94
72570;BME280;60594;50.204;8.844;2023-04-02T12:37:22;100342.34;;;6.18;91.55
72570;BME280;60594;50.204;8.844;2023-04-02T12:39:54;100346.31;;;6.25;92.78
72570;BME280;60594;50.204;8.844;2023-04-02T12:42:32;100346.69;;;6.19;93.87
72570;BME280;60594;50.204;8.844;2023-04-02T12:45:00;100351.31;;;6.30;91.95
72570;BME280;60594;50.204;8.844;2023-04-02T12:47:27;100357.13;;;6.36;93.78
72570;BME280;60594;50.204;8.844;2023-04-02T12:49:55;100364.38;;;6.47;95.01
72570;BME280;60594;50.204;8.844;2023-04-02T12:52:25;100370.13;;;6.39;90.61
72570;BME280;60594;50.204;8.844;2023-04-02T12:54:59;100371.09;;;6.38;92.12
72570;BME280;60594;50.204;8.844;2023-04-02T13:00:27;100383.06;;;6.30;91.72
72570;BME280;60594;50.204;8.844;2023-04-02T13:05:36;100387.03;;;6.23;91.70
72570;BME280;60594;50.204;8.844;2023-04-02T13:08:05;100398.81;;;6.17;90.26
72570;BME280;60594;50.204;8.844;2023-04-02T13:10:32;100392.66;;;6.03;92.12
72570;BME280;60594;50.204;8.844;2023-04-02T13:13:00;100400.59;;;6.03;93.44
72570;BME280;60594;50.204;8.844;2023-04-02T13:15:33;100400.69;;;6.01;93.32
72570;BME280;60594;50.204;8.844;2023-04-02T13:20:36;100400.28;;;5.93;91.87
72570;BME280;60594;50.204;8.844;2023-04-02T13:26:16;100406.69;;;5.89;94.18
72570;BME280;60594;50.204;8.844;2023-04-02T13:29:10;100418.00;;;5.91;89.79
72570;BME280;60594;50.204;8.844;2023-04-02T13:31:42;100418.53;;;5.98;94.20
72570;BME280;60594;50.204;8.844;2023-04-02T13:34:09;100416.53;;;6.01;93.62
72570;BME280;60594;50.204;8.844;2023-04-02T13:36:35;100422.97;;;5.82;88.48
72570;BME280;60594;50.204;8.844;2023-04-02T13:39:03;100423.22;;;5.93;92.79
72570;BME280;60594;50.204;8.844;2023-04-02T13:41:47;100428.25;;;5.97;92.26
72570;BME280;60594;50.204;8.844;2023-04-02T13:44:33;100436.44;;;5.93;93.44
72570;BME280;60594;50.204;8.844;2023-04-02T13:47:02;100433.31;;;5.86;90.88
72570;BME280;60594;50.204;8.844;2023-04-02T13:49:29;100434.06;;;5.73;90.92
72570;BME280;60594;50.204;8.844;2023-04-02T13:51:58;100444.47;;;5.76;90.09
72570;BME280;60594;50.204;8.844;2023-04-02T13:57:14;100454.97;;;5.77;92.64
72570;BME280;60594;50.204;8.844;2023-04-02T13:59:41;100454.59;;;5.68;90.91
72570;BME280;60594;50.204;8.844;2023-04-02T14:02:10;100456.03;;;5.73;90.95
72570;BME280;60594;50.204;8.844;2023-04-02T14:04:43;100459.88;;;5.68;90.89
72570;BME280;60594;50.204;8.844;2023-04-02T14:07:19;100465.53;;;5.77;91.91
72570;BME280;60594;50.204;8.844;2023-04-02T14:12:50;100476.81;;;5.81;89.68
72570;BME280;60594;50.204;8.844;2023-04-02T14:15:38;100483.44;;;5.72;92.59
72570;BME280;60594;50.204;8.844;2023-04-02T14:23:36;100496.72;;;5.71;92.42
72570;BME280;60594;50.204;8.844;2023-04-02T14:26:25;100500.41;;;5.68;88.94
72570;BME280;60594;50.204;8.844;2023-04-02T14:29:09;100520.03;;;5.64;87.69
72570;BME280;60594;50.204;8.844;2023-04-02T14:40:20;100525.72;;;5.41;89.43
72570;BME280;60594;50.204;8.844;2023-04-02T14:42:57;100524.69;;;5.44;88.21
72570;BME280;60594;50.204;8.844;2023-04-02T14:45:42;100522.16;;;5.25;88.99
72570;BME280;60594;50.204;8.844;2023-04-02T14:50:47;100529.69;;;5.33;90.42
72570;BME280;60594;50.204;8.844;2023-04-02T14:53:21;100539.03;;;5.23;87.77
72570;BME280;60594;50.204;8.844;2023-04-02T14:55:51;100532.72;;;5.10;91.00
72570;BME280;60594;50.204;8.844;2023-04-02T14:58:20;100541.47;;;5.10;87.96
72570;BME280;60594;50.204;8.844;2023-04-02T15:01:02;100540.56;;;5.11;91.21
72570;BME280;60594;50.204;8.844;2023-04-02T15:03:41;100544.66;;;5.17;88.72
72570;BME280;60594;50.204;8.844;2023-04-02T15:06:17;100565.00;;;5.15;91.42
72570;BME280;60594;50.204;8.844;2023-04-02T15:08:53;100565.53;;;5.21;89.30
72570;BME280;60594;50.204;8.844;2023-04-02T15:14:16;100578.28;;;5.30;86.23
72570;BME280;60594;50.204;8.844;2023-04-02T15:16:44;100573.34;;;5.07;86.58
72570;BME280;60594;50.204;8.844;2023-04-02T15:19:15;100577.28;;;5.16;86.80
72570;BME280;60594;50.204;8.844;2023-04-02T15:30:19;100593.47;;;5.10;83.95
72570;BME280;60594;50.204;8.844;2023-04-02T15:32:49;100590.59;;;4.97;85.88
72570;BME280;60594;50.204;8.844;2023-04-02T15:35:29;100589.28;;;4.89;84.23
72570;BME280;60594;50.204;8.844;2023-04-02T15:38:34;100585.63;;;4.91;84.33
72570;BME280;60594;50.204;8.844;2023-04-02T15:41:14;100592.53;;;4.94;83.50
72570;BME280;60594;50.204;8.844;2023-04-02T15:44:06;100594.56;;;4.89;83.55
72570;BME280;60594;50.204;8.844;2023-04-02T15:46:53;100591.13;;;4.87;84.38
72570;BME280;60594;50.204;8.844;2023-04-02T15:49:41;100597.34;;;4.86;83.83
72570;BME280;60594;50.204;8.844;2023-04-02T15:55:10;100602.16;;;4.78;84.20
72570;BME280;60594;50.204;8.844;2023-04-02T15:58:20;100607.28;;;4.81;83.93
72570;BME280;60594;50.204;8.844;2023-04-02T16:12:24;100624.47;;;4.89;80.99
72570;BME280;60594;50.204;8.844;2023-04-02T16:14:54;100637.03;;;5.01;82.49